Time,TemperatureF,DewpointF,PressureIn,WindDirection,WindDirectionDegrees,WindSpeedMPH,WindSpeedGustMPH,Humidity,HourlyPrecipIn,Conditions,Clouds,dailyrainin,SolarRadiationWatts/m^2,SoftwareType,DateUTC
2013-10-15 00:03:00,46.0,40.0,-100.00,ESE,114,7.0,13.0,79,0.00,,,0.00,0.000000,,2013-10-15 05:03:00,
2013-10-15 00:42:00,46.0,42.0,-100.00,ESE,107,8.0,15.0,85,0.00,,,0.00,0.000000,,2013-10-15 05:42:00,
2013-10-15 00:53:00,46.0,42.0,-100.00,ESE,107,8.0,15.0,85,0.00,,,0.00,0.000000,,2013-10-15 05:53:00,
2013-10-15 01:02:00,46.0,42.0,-100.00,ESE,107,8.0,15.0,85,0.00,,,0.00,0.000000,,2013-10-15 06:02:00,
2013-10-15 01:43:00,47.0,42.0,-100.00,East,100,8.0,14.0,84,0.00,,,0.00,0.000000,,2013-10-15 06:43:00,
2013-10-15 01:52:00,47.0,42.0,-100.00,East,100,8.0,14.0,84,0.00,,,0.00,0.000000,,2013-10-15 06:52:00,
2013-10-15 02:02:00,47.0,42.0,-100.00,East,100,8.0,14.0,84,0.00,,,0.00,0.000000,,2013-10-15 07:02:00,
2013-10-15 02:42:00,48.0,43.0,-100.00,ESE,105,10.0,17.0,82,0.00,,,0.00,0.000000,,2013-10-15 07:42:00,
2013-10-15 02:53:00,48.0,43.0,-100.00,ESE,105,10.0,17.0,82,0.00,,,0.00,0.000000,,2013-10-15 07:53:00,
2013-10-15 03:02:00,48.0,43.0,-100.00,ESE,105,10.0,17.0,82,0.00,,,0.00,0.000000,,2013-10-15 08:02:00,
2013-10-15 03:42:00,48.0,43.0,-100.00,ESE,106,9.0,14.0,82,0.00,,,0.00,0.000000,,2013-10-15 08:42:00,
2013-10-15 03:52:00,48.0,43.0,-100.00,ESE,106,9.0,14.0,82,0.00,,,0.00,0.000000,,2013-10-15 08:52:00,
2013-10-15 04:02:00,48.0,43.0,-100.00,ESE,106,9.0,14.0,82,0.00,,,0.00,0.000000,,2013-10-15 09:02:00,
2013-10-15 04:43:00,49.0,44.0,-100.00,ESE,106,7.0,14.0,84,0.00,,,0.00,0.000000,,2013-10-15 09:43:00,
2013-10-15 04:53:00,49.0,44.0,-100.00,ESE,106,7.0,14.0,84,0.00,,,0.00,0.000000,,2013-10-15 09:53:00,
2013-10-15 05:03:00,49.0,44.0,-100.00,ESE,106,7.0,14.0,84,0.00,,,0.00,0.000000,,2013-10-15 10:03:00,
2013-10-15 05:43:00,48.0,46.0,-100.00,ESE,113,6.0,11.0,93,0.08,,,0.08,0.000000,,2013-10-15 10:43:00,
2013-10-15 05:53:00,48.0,46.0,-100.00,ESE,113,6.0,11.0,93,0.08,,,0.08,0.000000,,2013-10-15 10:53:00,
2013-10-15 06:02:00,48.0,46.0,-100.00,ESE,113,6.0,11.0,93,0.08,,,0.08,0.000000,,2013-10-15 11:02:00,
2013-10-15 06:42:00,48.0,47.0,-100.00,ESE,122,8.0,18.0,95,0.08,,,0.16,0.000000,,2013-10-15 11:42:00,
2013-10-15 06:53:00,48.0,47.0,-100.00,ESE,122,8.0,18.0,95,0.08,,,0.16,0.000000,,2013-10-15 11:53:00,
2013-10-15 07:01:00,48.0,47.0,-100.00,ESE,122,8.0,18.0,95,0.08,,,0.16,0.000000,,2013-10-15 12:01:00,
2013-10-15 07:42:00,49.0,48.0,-100.00,ESE,119,10.0,19.0,96,0.13,,,0.29,0.000000,,2013-10-15 12:42:00,
2013-10-15 07:52:00,49.0,48.0,-100.00,ESE,119,10.0,19.0,96,0.13,,,0.29,0.000000,,2013-10-15 12:52:00,
2013-10-15 08:02:00,49.0,48.0,-100.00,ESE,119,10.0,19.0,96,0.13,,,0.29,0.000000,,2013-10-15 13:02:00,
2013-10-15 08:42:00,49.0,48.0,-100.00,SE,131,9.0,24.0,98,0.21,,,0.50,1.000000,,2013-10-15 13:42:00,
2013-10-15 08:52:00,49.0,48.0,-100.00,SE,131,9.0,24.0,98,0.21,,,0.50,1.000000,,2013-10-15 13:52:00,
2013-10-15 09:02:00,49.0,48.0,-100.00,SE,131,9.0,24.0,98,0.21,,,0.50,1.000000,,2013-10-15 14:02:00,
2013-10-15 09:42:00,50.0,49.0,-100.00,SE,131,8.0,18.0,98,0.19,,,0.69,5.000000,,2013-10-15 14:42:00,
2013-10-15 09:52:00,50.0,49.0,-100.00,SE,131,8.0,18.0,98,0.19,,,0.69,5.000000,,2013-10-15 14:52:00,
2013-10-15 10:01:00,50.0,49.0,-100.00,SE,131,8.0,18.0,98,0.19,,,0.69,5.000000,,2013-10-15 15:01:00,
2013-10-15 10:44:00,51.0,50.0,-100.00,SSE,147,9.0,16.0,97,0.06,,,0.75,15.000000,,2013-10-15 15:44:00,
2013-10-15 10:53:00,51.0,50.0,-100.00,SSE,147,9.0,16.0,97,0.06,,,0.75,15.000000,,2013-10-15 15:53:00,
2013-10-15 11:03:00,51.0,50.0,-100.00,SSE,147,9.0,16.0,97,0.06,,,0.75,15.000000,,2013-10-15 16:03:00,
2013-10-15 11:43:00,52.0,51.0,-100.00,SSE,148,7.0,19.0,97,0.00,,,0.75,43.000000,,2013-10-15 16:43:00,
2013-10-15 11:53:00,52.0,51.0,-100.00,SSE,148,7.0,19.0,97,0.00,,,0.75,43.000000,,2013-10-15 16:53:00,
2013-10-15 12:02:00,52.0,51.0,-100.00,SSE,148,7.0,19.0,97,0.00,,,0.75,43.000000,,2013-10-15 17:02:00,
2013-10-15 12:42:00,52.0,51.0,-100.00,SSE,147,7.0,13.0,98,0.00,,,0.75,36.000000,,2013-10-15 17:42:00,
2013-10-15 12:53:00,52.0,51.0,-100.00,SSE,147,7.0,13.0,98,0.00,,,0.75,36.000000,,2013-10-15 17:53:00,
2013-10-15 13:02:00,52.0,51.0,-100.00,SSE,147,7.0,13.0,98,0.00,,,0.75,36.000000,,2013-10-15 18:02:00,
2013-10-15 13:42:00,53.0,52.0,-100.00,SSE,150,6.0,12.0,98,0.00,,,0.75,50.000000,,2013-10-15 18:42:00,
2013-10-15 13:52:00,53.0,52.0,-100.00,SSE,150,6.0,12.0,98,0.00,,,0.75,50.000000,,2013-10-15 18:52:00,
2013-10-15 14:01:00,53.0,52.0,-100.00,SSE,150,6.0,12.0,98,0.00,,,0.75,50.000000,,2013-10-15 19:01:00,
2013-10-15 14:42:00,54.0,53.0,-100.00,SSE,162,7.0,11.0,98,0.00,,,0.75,75.000000,,2013-10-15 19:42:00,
2013-10-15 14:52:00,54.0,53.0,-100.00,SSE,162,7.0,11.0,98,0.00,,,0.75,75.000000,,2013-10-15 19:52:00,
2013-10-15 15:03:00,54.0,53.0,-100.00,SSE,162,7.0,11.0,98,0.00,,,0.75,75.000000,,2013-10-15 20:03:00,
2013-10-15 15:42:00,55.0,54.0,-100.00,SSE,159,7.0,11.0,97,0.00,,,0.75,74.000000,,2013-10-15 20:42:00,
2013-10-15 15:52:00,55.0,54.0,-100.00,SSE,159,7.0,11.0,97,0.00,,,0.75,74.000000,,2013-10-15 20:52:00,
2013-10-15 16:02:00,55.0,54.0,-100.00,SSE,159,7.0,11.0,97,0.00,,,0.75,74.000000,,2013-10-15 21:02:00,
2013-10-15 16:44:00,55.0,54.0,-100.00,SSE,152,5.0,11.0,97,0.00,,,0.75,42.000000,,2013-10-15 21:44:00,
2013-10-15 16:54:00,55.0,54.0,-100.00,SSE,152,5.0,11.0,97,0.00,,,0.75,42.000000,,2013-10-15 21:54:00,
2013-10-15 17:04:00,55.0,54.0,-100.00,SSE,152,5.0,11.0,97,0.00,,,0.75,42.000000,,2013-10-15 22:04:00,
2013-10-15 17:43:00,55.0,54.0,-100.00,SSW,193,6.0,13.0,97,0.00,,,0.75,28.000000,,2013-10-15 22:43:00,
2013-10-15 17:53:00,55.0,54.0,-100.00,SSW,193,6.0,13.0,97,0.00,,,0.75,28.000000,,2013-10-15 22:53:00,
2013-10-15 18:03:00,55.0,54.0,-100.00,SSW,193,6.0,13.0,97,0.00,,,0.75,28.000000,,2013-10-15 23:03:00,
2013-10-15 18:43:00,52.0,46.0,-100.00,WSW,250,8.0,18.0,80,0.00,,,0.75,11.000000,,2013-10-15 23:43:00,
2013-10-15 18:52:00,52.0,46.0,-100.00,WSW,250,8.0,18.0,80,0.00,,,0.75,11.000000,,2013-10-15 23:52:00,
2013-10-15 19:01:00,52.0,46.0,-100.00,WSW,250,8.0,18.0,80,0.00,,,0.75,11.000000,,2013-10-16 00:01:00,
2013-10-15 19:42:00,50.0,45.0,-100.00,WSW,246,6.0,15.0,84,0.00,,,0.75,0.000000,,2013-10-16 00:42:00,
2013-10-15 19:52:00,50.0,45.0,-100.00,WSW,246,6.0,15.0,84,0.00,,,0.75,0.000000,,2013-10-16 00:52:00,
2013-10-15 20:02:00,50.0,45.0,-100.00,WSW,246,6.0,15.0,84,0.00,,,0.75,0.000000,,2013-10-16 01:02:00,
2013-10-15 20:42:00,49.0,45.0,-100.00,West,267,3.0,7.0,85,0.00,,,0.75,0.000000,,2013-10-16 01:42:00,
2013-10-15 20:52:00,49.0,45.0,-100.00,West,267,3.0,7.0,85,0.00,,,0.75,0.000000,,2013-10-16 01:52:00,
2013-10-15 21:02:00,49.0,45.0,-100.00,West,267,3.0,7.0,85,0.00,,,0.75,0.000000,,2013-10-16 02:02:00,
2013-10-15 21:42:00,49.0,44.0,-100.00,SW,227,6.0,12.0,84,0.00,,,0.75,0.000000,,2013-10-16 02:42:00,
2013-10-15 21:52:00,49.0,44.0,-100.00,SW,227,6.0,12.0,84,0.00,,,0.75,0.000000,,2013-10-16 02:52:00,
2013-10-15 22:02:00,49.0,44.0,-100.00,SW,227,6.0,12.0,84,0.00,,,0.75,0.000000,,2013-10-16 03:02:00,
2013-10-15 22:45:00,48.0,44.0,-100.00,WSW,239,6.0,13.0,86,0.00,,,0.75,0.000000,,2013-10-16 03:45:00,
2013-10-15 22:55:00,48.0,44.0,-100.00,WSW,239,6.0,13.0,86,0.00,,,0.75,0.000000,,2013-10-16 03:55:00,
2013-10-15 23:04:00,48.0,44.0,-100.00,WSW,239,6.0,13.0,86,0.00,,,0.75,0.000000,,2013-10-16 04:04:00,
2013-10-15 23:43:00,47.0,44.0,-100.00,WSW,251,7.0,13.0,88,0.00,,,0.75,0.000000,,2013-10-16 04:43:00,
2013-10-15 23:54:00,47.0,44.0,-100.00,WSW,251,7.0,13.0,88,0.00,,,0.75,0.000000,,2013-10-16 04:54:00,